sensor_id;sensor_type;location;lat;lon;timestamp;pressure;altitude;pressure_sealevel;temperature;humidity
15229;BME280;7717;47.792;12.076;2024-02-28T00:00:47;95930.59;;;0.09;100.00
15229;BME280;7717;47.792;12.076;2024-02-28T00:03:13;95920.53;;;-0.07;100.00
15229;BME280;7717;47.792;12.076;2024-02-28T00:05:38;95926.88;;;0.24;100.00
15229;BME280;7717;47.792;12.076;2024-02-28T00:08:04;95925.66;;;0.06;100.00
15229;BME280;7717;47.792;12.076;2024-02-28T00:10:29;95936.59;;;-0.02;100.00
15229;BME280;7717;47.792;12.076;2024-02-28T00:12:54;95925.28;;;-0.01;100.00
15229;BME280;7717;47.792;12.076;2024-02-28T00:15:20;95923.53;;;0.00;100.00
15229;BME280;7717;47.792;12.076;2024-02-28T00:17:45;95931.06;;;0.03;100.00
15229;BME280;7717;47.792;12.076;2024-02-28T00:20:11;95907.84;;;-0.33;100.00
15229;BME280;7717;47.792;12.076;2024-02-28T00:22:38;95955.75;;;-0.15;100.00
15229;BME280;7717;47.792;12.076;2024-02-28T00:25:03;95947.31;;;-0.30;100.00
15229;BME280;7717;47.792;12.076;2024-02-28T00:27:32;95946.97;;;-0.25;100.00
15229;BME280;7717;47.792;12.076;2024-02-28T00:29:57;95960.88;;;-0.26;100.00
15229;BME280;7717;47.792;12.076;2024-02-28T00:32:22;95969.69;;;-0.40;100.00
15229;BME280;7717;47.792;12.076;2024-02-28T00:34:47;95968.50;;;-0.36;100.00
15229;BME280;7717;47.792;12.076;2024-02-28T00:37:13;95973.03;;;-0.51;100.00
15229;BME280;7717;47.792;12.076;2024-02-28T00:39:38;95980.94;;;-0.65;100.00
15229;BME280;7717;47.792;12.076;2024-02-28T00:42:03;95979.56;;;-0.58;100.00
15229;BME280;7717;47.792;12.076;2024-02-28T00:44:29;95978.03;;;-0.60;100.00
15229;BME280;7717;47.792;12.076;2024-02-28T00:46:55;95985.03;;;-0.50;100.00
15229;BME280;7717;47.792;12.076;2024-02-28T00:49:20;95980.25;;;-0.67;100.00
15229;BME280;7717;47.792;12.076;2024-02-28T00:51:46;95984.47;;;-0.66;100.00
15229;BME280;7717;47.792;12.076;2024-02-28T00:54:11;95993.41;;;-0.70;100.00
15229;BME280;7717;47.792;12.076;2024-02-28T00:56:36;95985.63;;;-0.70;100.00
15229;BME280;7717;47.792;12.076;2024-02-28T00:59:02;95996.53;;;-0.77;100.00
15229;BME280;7717;47.792;12.076;2024-02-28T01:01:28;95997.63;;;-0.56;100.00
15229;BME280;7717;47.792;12.076;2024-02-28T01:03:53;96001.69;;;-0.77;100.00
15229;BME280;7717;47.792;12.076;2024-02-28T01:06:18;96003.56;;;-0.67;100.00
15229;BME280;7717;47.792;12.076;2024-02-28T01:08:44;96013.53;;;-0.73;100.00
15229;BME280;7717;47.792;12.076;2024-02-28T01:11:10;96004.38;;;-0.79;100.00
15229;BME280;7717;47.792;12.076;2024-02-28T01:13:35;96018.97;;;-0.65;100.00
15229;BME280;7717;47.792;12.076;2024-02-28T01:16:01;96009.78;;;-0.69;100.00
15229;BME280;7717;47.792;12.076;2024-02-28T01:18:26;96005.75;;;-0.73;100.00
15229;BME280;7717;47.792;12.076;2024-02-28T01:20:55;96012.69;;;-0.74;100.00
15229;BME280;7717;47.792;12.076;2024-02-28T01:23:21;96014.03;;;-0.68;100.00
15229;BME280;7717;47.792;12.076;2024-02-28T01:25:46;96024.66;;;-0.48;100.00
15229;BME280;7717;47.792;12.076;2024-02-28T01:28:11;96020.41;;;-0.49;100.00
15229;BME280;7717;47.792;12.076;2024-02-28T01:30:37;96024.13;;;-0.40;100.00
15229;BME280;7717;47.792;12.076;2024-02-28T01:33:03;96018.09;;;-0.41;100.00
15229;BME280;7717;47.792;12.076;2024-02-28T01:35:28;96026.66;;;-0.27;100.00
15229;BME280;7717;47.792;12.076;2024-02-28T01:37:54;96028.47;;;-0.17;100.00
15229;BME280;7717;47.792;12.076;2024-02-28T01:40:19;96027.09;;;-0.10;100.00
15229;BME280;7717;47.792;12.076;2024-02-28T01:42:45;96019.69;;;-0.03;100.00
15229;BME280;7717;47.792;12.076;2024-02-28T01:45:13;96013.16;;;0.15;100.00
15229;BME280;7717;47.792;12.076;2024-02-28T01:47:40;95957.44;;;-0.14;100.00
15229;BME280;7717;47.792;12.076;2024-02-28T01:50:07;96012.41;;;0.26;100.00
15229;BME280;7717;47.792;12.076;2024-02-28T01:52:32;95999.66;;;0.34;100.00
15229;BME280;7717;47.792;12.076;2024-02-28T01:54:58;95995.53;;;0.31;100.00
15229;BME280;7717;47.792;12.076;2024-02-28T01:57:24;96014.72;;;0.53;100.00
15229;BME280;7717;47.792;12.076;2024-02-28T01:59:51;96012.34;;;0.61;100.00
15229;BME280;7717;47.792;12.076;2024-02-28T02:02:17;96005.75;;;0.68;100.00
15229;BME280;7717;47.792;12.076;2024-02-28T02:04:42;96005.28;;;0.63;100.00
15229;BME280;7717;47.792;12.076;2024-02-28T02:07:08;95987.13;;;0.63;100.00
15229;BME280;7717;47.792;12.076;2024-02-28T02:09:34;95998.22;;;0.76;100.00
15229;BME280;7717;47.792;12.076;2024-02-28T02:12:00;96000.81;;;0.87;100.00
15229;BME280;7717;47.792;12.076;2024-02-28T02:14:25;96010.53;;;0.96;100.00
15229;BME280;7717;47.792;12.076;2024-02-28T02:16:50;96019.50;;;1.03;100.00
15229;BME280;7717;47.792;12.076;2024-02-28T02:19:16;96011.97;;;1.11;100.00
15229;BME280;7717;47.792;12.076;2024-02-28T02:21:49;96017.63;;;1.16;100.00
15229;BME280;7717;47.792;12.076;2024-02-28T02:24:15;96015.50;;;1.22;100.00
15229;BME280;7717;47.792;12.076;2024-02-28T02:26:41;96018.34;;;1.30;100.00
15229;BME280;7717;47.792;12.076;2024-02-28T02:29:09;95989.50;;;1.22;100.00
15229;BME280;7717;47.792;12.076;2024-02-28T02:31:34;96005.81;;;1.24;100.00
15229;BME280;7717;47.792;12.076;2024-02-28T02:34:00;96007.72;;;1.33;100.00
15229;BME280;7717;47.792;12.076;2024-02-28T02:36:25;96011.38;;;1.30;100.00
15229;BME280;7717;47.792;12.076;2024-02-28T02:38:50;96003.44;;;1.09;100.00
15229;BME280;7717;47.792;12.076;2024-02-28T02:41:16;96005.81;;;1.12;100.00
15229;BME280;7717;47.792;12.076;2024-02-28T02:43:41;96018.91;;;1.22;100.00
15229;BME280;7717;47.792;12.076;2024-02-28T02:46:06;96026.13;;;1.18;100.00
15229;BME280;7717;47.792;12.076;2024-02-28T02:48:32;96035.72;;;1.18;100.00
15229;BME280;7717;47.792;12.076;2024-02-28T02:50:58;96028.13;;;1.15;100.00
15229;BME280;7717;47.792;12.076;2024-02-28T02:53:23;96033.56;;;1.23;100.00
15229;BME280;7717;47.792;12.076;2024-02-28T02:55:48;96041.94;;;1.27;100.00
15229;BME280;7717;47.792;12.076;2024-02-28T02:58:14;96043.25;;;1.21;100.00
15229;BME280;7717;47.792;12.076;2024-02-28T03:00:39;96042.19;;;1.35;100.00
15229;BME280;7717;47.792;12.076;2024-02-28T03:03:04;96033.34;;;1.37;100.00
15229;BME280;7717;47.792;12.076;2024-02-28T03:05:30;96043.47;;;1.40;100.00
15229;BME280;7717;47.792;12.076;2024-02-28T03:07:56;96045.25;;;1.51;100.00
15229;BME280;7717;47.792;12.076;2024-02-28T03:10:21;96041.47;;;1.55;100.00
15229;BME280;7717;47.792;12.076;2024-02-28T03:12:46;96048.44;;;1.66;100.00
15229;BME280;7717;47.792;12.076;2024-02-28T03:15:12;96044.66;;;1.70;100.00
15229;BME280;7717;47.792;12.076;2024-02-28T03:17:37;96042.41;;;1.65;100.00
15229;BME280;7717;47.792;12.076;2024-02-28T03:20:03;96055.06;;;1.70;100.00
15229;BME280;7717;47.792;12.076;2024-02-28T03:22:28;96051.41;;;1.72;100.00
15229;BME280;7717;47.792;12.076;2024-02-28T03:24:54;96050.19;;;1.76;100.00
15229;BME280;7717;47.792;12.076;2024-02-28T03:27:19;96056.34;;;1.75;100.00
15229;BME280;7717;47.792;12.076;2024-02-28T03:29:44;96057.88;;;1.67;100.00
15229;BME280;7717;47.792;12.076;2024-02-28T03:32:10;96065.69;;;1.67;100.00
15229;BME280;7717;47.792;12.076;2024-02-28T03:34:35;96069.22;;;1.77;100.00
15229;BME280;7717;47.792;12.076;2024-02-28T03:37:00;96066.88;;;1.85;100.00
15229;BME280;7717;47.792;12.076;2024-02-28T03:39:26;96070.97;;;1.87;100.00
15229;BME280;7717;47.792;12.076;2024-02-28T03:41:51;96062.81;;;1.92;100.00
15229;BME280;7717;47.792;12.076;2024-02-28T03:44:16;96060.56;;;1.98;100.00
15229;BME280;7717;47.792;12.076;2024-02-28T03:46:42;96065.28;;;1.93;100.00
15229;BME280;7717;47.792;12.076;2024-02-28T03:49:07;96067.66;;;1.96;100.00
15229;BME280;7717;47.792;12.076;2024-02-28T03:51:39;96072.38;;;2.03;100.00
15229;BME280;7717;47.792;12.076;2024-02-28T03:54:04;96075.66;;;2.16;100.00
15229;BME280;7717;47.792;12.076;2024-02-28T03:56:30;96080.47;;;2.20;100.00
15229;BME280;7717;47.792;12.076;2024-02-28T03:58:55;96081.47;;;2.19;100.00
15229;BME280;7717;47.792;12.076;2024-02-28T04:01:20;96094.09;;;2.24;100.00
15229;BME280;7717;47.792;12.076;2024-02-28T04:03:46;96098.47;;;2.23;100.00
15229;BME280;7717;47.792;12.076;2024-02-28T04:06:11;96072.81;;;2.08;100.00
15229;BME280;7717;47.792;12.076;2024-02-28T04:08:37;96083.56;;;2.25;100.00
15229;BME280;7717;47.792;12.076;2024-02-28T04:11:02;96086.53;;;2.21;100.00
15229;BME280;7717;47.792;12.076;2024-02-28T04:13:28;96100.00;;;2.26;100.00
15229;BME280;7717;47.792;12.076;2024-02-28T04:15:53;96086.94;;;2.37;100.00
15229;BME280;7717;47.792;12.076;2024-02-28T04:18:18;96106.56;;;2.41;100.00
15229;BME280;7717;47.792;12.076;2024-02-28T04:20:44;96088.63;;;2.27;100.00
15229;BME280;7717;47.792;12.076;2024-02-28T04:23:09;96063.34;;;2.18;100.00
15229;BME280;7717;47.792;12.076;2024-02-28T04:25:34;96108.00;;;2.45;100.00
15229;BME280;7717;47.792;12.076;2024-02-28T04:28:01;96095.34;;;2.40;100.00
15229;BME280;7717;47.792;12.076;2024-02-28T04:30:27;96109.91;;;2.43;100.00
15229;BME280;7717;47.792;12.076;2024-02-28T04:32:52;96100.75;;;2.49;100.00
15229;BME280;7717;47.792;12.076;2024-02-28T04:35:17;96102.97;;;2.53;100.00
15229;BME280;7717;47.792;12.076;2024-02-28T04:37:46;96107.50;;;2.51;100.00
15229;BME280;7717;47.792;12.076;2024-02-28T04:40:12;96098.75;;;2.52;100.00
15229;BME280;7717;47.792;12.076;2024-02-28T04:42:39;96104.63;;;2.65;100.00
15229;BME280;7717;47.792;12.076;2024-02-28T04:45:04;96112.28;;;2.67;100.00
15229;BME280;7717;47.792;12.076;2024-02-28T04:47:30;96112.88;;;2.70;100.00
15229;BME280;7717;47.792;12.076;2024-02-28T04:49:56;96125.78;;;2.72;100.00
15229;BME280;7717;47.792;12.076;2024-02-28T04:52:21;96129.34;;;2.71;100.00
15229;BME280;7717;47.792;12.076;2024-02-28T04:54:47;96123.03;;;2.73;100.00
15229;BME280;7717;47.792;12.076;2024-02-28T04:57:12;96132.38;;;2.76;100.00
15229;BME280;7717;47.792;12.076;2024-02-28T04:59:37;96139.25;;;2.77;100.00
15229;BME280;7717;47.792;12.076;2024-02-28T05:02:03;96133.22;;;2.76;100.00
15229;BME280;7717;47.792;12.076;2024-02-28T05:04:28;96135.38;;;2.71;100.00
15229;BME280;7717;47.792;12.076;2024-02-28T05:06:54;96144.19;;;2.80;100.00
15229;BME280;7717;47.792;12.076;2024-02-28T05:09:19;96144.53;;;2.87;100.00
15229;BME280;7717;47.792;12.076;2024-02-28T05:11:44;96144.28;;;2.90;100.00
15229;BME280;7717;47.792;12.076;2024-02-28T05:14:10;96146.78;;;2.91;100.00
15229;BME280;7717;47.792;12.076;2024-02-28T05:16:36;96146.31;;;2.86;100.00
15229;BME280;7717;47.792;12.076;2024-02-28T05:19:01;96159.53;;;2.94;100.00
15229;BME280;7717;47.792;12.076;2024-02-28T05:21:26;96145.94;;;2.91;100.00
15229;BME280;7717;47.792;12.076;2024-02-28T05:23:53;96155.28;;;2.93;100.00
15229;BME280;7717;47.792;12.076;2024-02-28T05:26:18;96142.31;;;2.82;100.00
15229;BME280;7717;47.792;12.076;2024-02-28T05:28:43;96164.44;;;2.88;100.00
15229;BME280;7717;47.792;12.076;2024-02-28T05:31:23;96153.78;;;2.91;100.00
15229;BME280;7717;47.792;12.076;2024-02-28T05:33:56;96148.03;;;2.76;100.00
15229;BME280;7717;47.792;12.076;2024-02-28T05:36:23;96165.38;;;2.87;100.00
15229;BME280;7717;47.792;12.076;2024-02-28T05:38:49;96161.13;;;2.86;100.00
15229;BME280;7717;47.792;12.076;2024-02-28T05:41:18;96181.84;;;2.87;100.00
15229;BME280;7717;47.792;12.076;2024-02-28T05:43:44;96178.66;;;2.84;100.00
15229;BME280;7717;47.792;12.076;2024-02-28T05:46:11;96185.53;;;2.85;100.00
15229;BME280;7717;47.792;12.076;2024-02-28T05:48:37;96189.22;;;2.82;100.00
15229;BME280;7717;47.792;12.076;2024-02-28T05:51:02;96193.72;;;2.80;100.00
15229;BME280;7717;47.792;12.076;2024-02-28T05:53:28;96199.63;;;2.82;100.00
15229;BME280;7717;47.792;12.076;2024-02-28T05:55:57;96207.13;;;2.75;100.00
15229;BME280;7717;47.792;12.076;2024-02-28T05:58:23;96210.88;;;2.83;100.00
15229;BME280;7717;47.792;12.076;2024-02-28T06:00:49;96216.81;;;2.85;100.00
15229;BME280;7717;47.792;12.076;2024-02-28T06:03:14;96194.47;;;2.71;100.00
15229;BME280;7717;47.792;12.076;2024-02-28T06:05:40;96217.50;;;2.87;100.00
15229;BME280;7717;47.792;12.076;2024-02-28T06:08:05;96217.38;;;2.88;100.00
15229;BME280;7717;47.792;12.076;2024-02-28T06:10:31;96220.94;;;2.87;100.00
15229;BME280;7717;47.792;12.076;2024-02-28T06:12:56;96224.47;;;2.86;100.00
15229;BME280;7717;47.792;12.076;2024-02-28T06:15:21;96212.22;;;2.77;100.00
15229;BME280;7717;47.792;12.076;2024-02-28T06:17:47;96207.84;;;2.77;100.00
15229;BME280;7717;47.792;12.076;2024-02-28T06:20:12;96235.47;;;3.01;100.00
15229;BME280;7717;47.792;12.076;2024-02-28T06:22:37;96241.28;;;3.04;100.00
15229;BME280;7717;47.792;12.076;2024-02-28T06:25:03;96250.59;;;3.07;100.00
15229;BME280;7717;47.792;12.076;2024-02-28T06:27:33;96229.69;;;2.97;100.00
15229;BME280;7717;47.792;12.076;2024-02-28T06:29:59;96250.59;;;3.07;100.00
15229;BME280;7717;47.792;12.076;2024-02-28T06:32:24;96242.59;;;2.99;100.00
15229;BME280;7717;47.792;12.076;2024-02-28T06:34:50;96261.38;;;3.13;100.00
15229;BME280;7717;47.792;12.076;2024-02-28T06:37:15;96258.03;;;3.23;100.00
15229;BME280;7717;47.792;12.076;2024-02-28T06:39:41;96261.47;;;3.23;100.00
15229;BME280;7717;47.792;12.076;2024-02-28T06:42:07;96265.34;;;3.29;100.00
15229;BME280;7717;47.792;12.076;2024-02-28T06:44:32;96248.63;;;3.31;100.00
15229;BME280;7717;47.792;12.076;2024-02-28T06:46:58;96267.91;;;3.40;100.00
15229;BME280;7717;47.792;12.076;2024-02-28T06:49:23;96270.72;;;3.48;100.00
15229;BME280;7717;47.792;12.076;2024-02-28T06:51:49;96272.63;;;3.46;100.00
15229;BME280;7717;47.792;12.076;2024-02-28T06:54:14;96277.81;;;3.46;100.00
15229;BME280;7717;47.792;12.076;2024-02-28T06:56:40;96287.06;;;3.50;100.00
15229;BME280;7717;47.792;12.076;2024-02-28T06:59:05;96287.78;;;3.52;100.00
15229;BME280;7717;47.792;12.076;2024-02-28T07:01:32;96254.53;;;3.33;100.00
15229;BME280;7717;47.792;12.076;2024-02-28T07:03:57;96284.53;;;3.59;100.00
15229;BME280;7717;47.792;12.076;2024-02-28T07:06:23;96289.00;;;3.69;100.00
15229;BME280;7717;47.792;12.076;2024-02-28T07:08:48;96302.63;;;3.72;100.00
15229;BME280;7717;47.792;12.076;2024-02-28T07:11:14;96292.44;;;3.69;100.00
15229;BME280;7717;47.792;12.076;2024-02-28T07:13:40;96286.16;;;3.72;100.00
15229;BME280;7717;47.792;12.076;2024-02-28T07:16:05;96302.56;;;3.83;100.00
15229;BME280;7717;47.792;12.076;2024-02-28T07:18:31;96316.25;;;3.96;100.00
15229;BME280;7717;47.792;12.076;2024-02-28T07:20:57;96289.97;;;3.88;100.00
15229;BME280;7717;47.792;12.076;2024-02-28T07:23:22;96307.41;;;4.09;100.00
15229;BME280;7717;47.792;12.076;2024-02-28T07:25:48;96312.94;;;4.15;100.00
15229;BME280;7717;47.792;12.076;2024-02-28T07:28:13;96308.41;;;4.17;100.00
15229;BME280;7717;47.792;12.076;2024-02-28T07:30:38;96310.75;;;4.20;100.00
15229;BME280;7717;47.792;12.076;2024-02-28T07:33:05;96313.84;;;4.25;100.00
15229;BME280;7717;47.792;12.076;2024-02-28T07:35:31;96320.38;;;4.20;100.00
15229;BME280;7717;47.792;12.076;2024-02-28T07:37:56;96322.97;;;4.20;100.00
15229;BME280;7717;47.792;12.076;2024-02-28T07:40:21;96326.91;;;4.25;100.00
15229;BME280;7717;47.792;12.076;2024-02-28T07:42:47;96325.53;;;4.31;100.00
15229;BME280;7717;47.792;12.076;2024-02-28T07:45:12;96322.66;;;4.34;100.00
15229;BME280;7717;47.792;12.076;2024-02-28T07:47:38;96321.59;;;4.36;100.00
15229;BME280;7717;47.792;12.076;2024-02-28T07:50:06;96325.66;;;4.29;100.00
15229;BME280;7717;47.792;12.076;2024-02-28T07:52:31;96331.59;;;4.31;100.00
15229;BME280;7717;47.792;12.076;2024-02-28T07:55:00;96334.88;;;4.33;100.00
15229;BME280;7717;47.792;12.076;2024-02-28T07:57:25;96329.34;;;4.27;100.00
15229;BME280;7717;47.792;12.076;2024-02-28T07:59:50;96332.28;;;4.33;100.00
15229;BME280;7717;47.792;12.076;2024-02-28T08:02:16;96331.75;;;4.39;100.00
15229;BME280;7717;47.792;12.076;2024-02-28T08:04:45;96332.91;;;4.47;100.00
15229;BME280;7717;47.792;12.076;2024-02-28T08:07:10;96332.94;;;4.56;100.00
15229;BME280;7717;47.792;12.076;2024-02-28T08:09:35;96335.03;;;4.62;100.00
15229;BME280;7717;47.792;12.076;2024-02-28T08:12:01;96338.47;;;4.63;100.00
15229;BME280;7717;47.792;12.076;2024-02-28T08:14:27;96339.31;;;4.63;100.00
15229;BME280;7717;47.792;12.076;2024-02-28T08:16:52;96342.34;;;4.68;100.00
15229;BME280;7717;47.792;12.076;2024-02-28T08:19:17;96342.22;;;4.70;100.00
15229;BME280;7717;47.792;12.076;2024-02-28T08:21:43;96337.72;;;4.72;100.00
15229;BME280;7717;47.792;12.076;2024-02-28T08:24:08;96345.41;;;4.73;100.00
15229;BME280;7717;47.792;12.076;2024-02-28T08:26:34;96345.97;;;4.77;100.00
15229;BME280;7717;47.792;12.076;2024-02-28T08:28:59;96348.84;;;4.74;100.00
15229;BME280;7717;47.792;12.076;2024-02-28T08:31:24;96303.31;;;4.46;100.00
15229;BME280;7717;47.792;12.076;2024-02-28T08:33:50;96352.16;;;4.76;100.00
15229;BME280;7717;47.792;12.076;2024-02-28T08:36:15;96347.34;;;4.81;100.00
15229;BME280;7717;47.792;12.076;2024-02-28T08:38:41;96345.28;;;4.75;100.00
15229;BME280;7717;47.792;12.076;2024-02-28T08:41:07;96351.16;;;4.67;100.00
15229;BME280;7717;47.792;12.076;2024-02-28T08:43:37;96363.88;;;4.82;100.00
15229;BME280;7717;47.792;12.076;2024-02-28T08:46:02;96354.00;;;4.85;100.00
15229;BME280;7717;47.792;12.076;2024-02-28T08:48:28;96369.97;;;4.92;100.00
15229;BME280;7717;47.792;12.076;2024-02-28T08:50:54;96374.38;;;4.91;100.00
15229;BME280;7717;47.792;12.076;2024-02-28T08:53:19;96373.97;;;4.96;100.00
15229;BME280;7717;47.792;12.076;2024-02-28T08:55:44;96381.28;;;5.02;100.00
15229;BME280;7717;47.792;12.076;2024-02-28T08:58:10;96379.69;;;5.10;100.00
15229;BME280;7717;47.792;12.076;2024-02-28T09:00:35;96375.81;;;5.14;100.00
15229;BME280;7717;47.792;12.076;2024-02-28T09:03:01;96313.38;;;4.81;100.00
15229;BME280;7717;47.792;12.076;2024-02-28T09:05:27;96387.84;;;5.27;100.00
15229;BME280;7717;47.792;12.076;2024-02-28T09:07:52;96384.69;;;5.33;100.00
15229;BME280;7717;47.792;12.076;2024-02-28T09:10:20;96379.34;;;5.44;100.00
15229;BME280;7717;47.792;12.076;2024-02-28T09:12:48;96379.47;;;5.52;100.00
15229;BME280;7717;47.792;12.076;2024-02-28T09:15:14;96367.91;;;5.54;100.00
15229;BME280;7717;47.792;12.076;2024-02-28T09:17:43;96381.72;;;5.76;100.00
15229;BME280;7717;47.792;12.076;2024-02-28T09:20:09;96379.25;;;5.84;100.00
15229;BME280;7717;47.792;12.076;2024-02-28T09:22:34;96375.53;;;5.86;100.00
15229;BME280;7717;47.792;12.076;2024-02-28T09:25:00;96375.69;;;5.94;100.00
15229;BME280;7717;47.792;12.076;2024-02-28T09:27:29;96376.38;;;6.06;100.00
15229;BME280;7717;47.792;12.076;2024-02-28T09:29:54;96364.81;;;6.09;100.00
15229;BME280;7717;47.792;12.076;2024-02-28T09:32:19;96364.25;;;6.15;100.00
15229;BME280;7717;47.792;12.076;2024-02-28T09:34:45;96377.63;;;6.31;100.00
15229;BME280;7717;47.792;12.076;2024-02-28T09:37:10;96377.88;;;6.28;100.00
15229;BME280;7717;47.792;12.076;2024-02-28T09:39:38;96378.84;;;6.27;100.00
15229;BME280;7717;47.792;12.076;2024-02-28T09:42:07;96359.41;;;6.20;100.00
15229;BME280;7717;47.792;12.076;2024-02-28T09:44:34;96382.03;;;6.21;100.00
15229;BME280;7717;47.792;12.076;2024-02-28T09:46:59;96388.47;;;6.46;100.00
15229;BME280;7717;47.792;12.076;2024-02-28T09:49:25;96387.09;;;6.51;100.00
15229;BME280;7717;47.792;12.076;2024-02-28T09:51:52;96392.31;;;6.61;100.00
15229;BME280;7717;47.792;12.076;2024-02-28T09:54:18;96390.50;;;6.61;100.00
15229;BME280;7717;47.792;12.076;2024-02-28T09:56:44;96392.59;;;6.58;100.00
15229;BME280;7717;47.792;12.076;2024-02-28T09:59:10;96389.56;;;6.53;100.00
15229;BME280;7717;47.792;12.076;2024-02-28T10:01:44;96392.75;;;6.47;100.00
15229;BME280;7717;47.792;12.076;2024-02-28T10:04:13;96397.41;;;6.53;100.00
15229;BME280;7717;47.792;12.076;2024-02-28T10:06:41;96405.72;;;6.48;100.00
15229;BME280;7717;47.792;12.076;2024-02-28T10:09:07;96402.13;;;6.49;100.00
15229;BME280;7717;47.792;12.076;2024-02-28T10:11:33;96408.16;;;6.69;100.00
15229;BME280;7717;47.792;12.076;2024-02-28T10:14:00;96403.44;;;6.72;100.00
15229;BME280;7717;47.792;12.076;2024-02-28T10:16:27;96388.91;;;6.51;100.00
15229;BME280;7717;47.792;12.076;2024-02-28T10:18:52;96404.00;;;6.76;100.00
15229;BME280;7717;47.792;12.076;2024-02-28T10:21:18;96420.00;;;6.73;100.00
15229;BME280;7717;47.792;12.076;2024-02-28T10:23:44;96417.81;;;6.78;100.00
15229;BME280;7717;47.792;12.076;2024-02-28T10:26:11;96417.25;;;6.65;100.00
15229;BME280;7717;47.792;12.076;2024-02-28T10:28:37;96423.06;;;6.68;100.00
15229;BME280;7717;47.792;12.076;2024-02-28T10:31:04;96425.00;;;6.76;100.00
15229;BME280;7717;47.792;12.076;2024-02-28T10:33:30;96421.22;;;6.78;100.00
15229;BME280;7717;47.792;12.076;2024-02-28T10:35:58;96426.38;;;6.70;100.00
15229;BME280;7717;47.792;12.076;2024-02-28T10:38:26;96427.88;;;6.73;100.00
15229;BME280;7717;47.792;12.076;2024-02-28T10:40:53;96425.50;;;6.79;100.00
15229;BME280;7717;47.792;12.076;2024-02-28T10:43:19;96420.56;;;6.76;100.00
15229;BME280;7717;47.792;12.076;2024-02-28T10:45:45;96425.38;;;6.71;100.00
15229;BME280;7717;47.792;12.076;2024-02-28T10:48:14;96428.25;;;6.88;100.00
15229;BME280;7717;47.792;12.076;2024-02-28T10:50:39;96425.94;;;6.85;100.00
15229;BME280;7717;47.792;12.076;2024-02-28T10:53:14;96416.25;;;6.85;100.00
15229;BME280;7717;47.792;12.076;2024-02-28T10:55:42;96424.38;;;6.92;100.00
15229;BME280;7717;47.792;12.076;2024-02-28T10:58:10;96422.44;;;7.03;100.00
15229;BME280;7717;47.792;12.076;2024-02-28T11:00:39;96424.72;;;7.16;100.00
15229;BME280;7717;47.792;12.076;2024-02-28T11:03:13;96431.22;;;7.12;100.00
15229;BME280;7717;47.792;12.076;2024-02-28T11:05:43;96417.94;;;7.23;100.00
15229;BME280;7717;47.792;12.076;2024-02-28T11:08:20;96431.81;;;7.33;100.00
15229;BME280;7717;47.792;12.076;2024-02-28T11:10:47;96429.06;;;7.35;100.00
15229;BME280;7717;47.792;12.076;2024-02-28T11:13:26;96424.66;;;7.26;100.00
15229;BME280;7717;47.792;12.076;2024-02-28T11:15:52;96425.63;;;7.25;100.00
15229;BME280;7717;47.792;12.076;2024-02-28T11:18:19;96425.81;;;7.23;100.00
15229;BME280;7717;47.792;12.076;2024-02-28T11:20:44;96420.66;;;7.31;100.00
15229;BME280;7717;47.792;12.076;2024-02-28T11:23:13;96417.47;;;7.28;100.00
15229;BME280;7717;47.792;12.076;2024-02-28T11:25:40;96414.16;;;7.26;100.00
15229;BME280;7717;47.792;12.076;2024-02-28T11:28:05;96420.50;;;7.60;100.00
15229;BME280;7717;47.792;12.076;2024-02-28T11:30:32;96432.41;;;7.82;100.00
15229;BME280;7717;47.792;12.076;2024-02-28T11:32:57;96418.59;;;7.52;98.27
15229;BME280;7717;47.792;12.076;2024-02-28T11:35:25;96378.09;;;7.28;100.00
15229;BME280;7717;47.792;12.076;2024-02-28T11:37:50;96422.44;;;7.58;100.00
15229;BME280;7717;47.792;12.076;2024-02-28T11:40:19;96430.06;;;7.51;100.00
15229;BME280;7717;47.792;12.076;2024-02-28T11:42:44;96425.31;;;7.37;100.00
15229;BME280;7717;47.792;12.076;2024-02-28T11:45:10;96437.56;;;7.46;100.00
15229;BME280;7717;47.792;12.076;2024-02-28T11:47:35;96425.41;;;7.45;100.00
15229;BME280;7717;47.792;12.076;2024-02-28T11:50:01;96426.53;;;7.43;100.00
15229;BME280;7717;47.792;12.076;2024-02-28T11:52:30;96437.16;;;7.51;100.00
15229;BME280;7717;47.792;12.076;2024-02-28T11:54:55;96426.63;;;7.51;100.00
15229;BME280;7717;47.792;12.076;2024-02-28T11:57:21;96426.56;;;7.61;100.00
15229;BME280;7717;47.792;12.076;2024-02-28T11:59:46;96427.25;;;7.63;100.00
15229;BME280;7717;47.792;12.076;2024-02-28T12:02:12;96415.84;;;7.72;100.00
15229;BME280;7717;47.792;12.076;2024-02-28T12:04:39;96423.69;;;7.81;100.00
15229;BME280;7717;47.792;12.076;2024-02-28T12:07:05;96422.66;;;8.10;100.00
15229;BME280;7717;47.792;12.076;2024-02-28T12:09:31;96428.66;;;8.02;99.64
15229;BME280;7717;47.792;12.076;2024-02-28T12:12:00;96429.81;;;7.72;100.00
15229;BME280;7717;47.792;12.076;2024-02-28T12:14:26;96419.53;;;7.61;100.00
15229;BME280;7717;47.792;12.076;2024-02-28T12:16:52;96409.00;;;7.61;100.00
15229;BME280;7717;47.792;12.076;2024-02-28T12:19:18;96414.25;;;7.88;100.00
15229;BME280;7717;47.792;12.076;2024-02-28T12:21:45;96419.84;;;7.76;99.52
15229;BME280;7717;47.792;12.076;2024-02-28T12:24:11;96415.19;;;7.70;97.99
15229;BME280;7717;47.792;12.076;2024-02-28T12:26:37;96416.66;;;7.54;99.28
15229;BME280;7717;47.792;12.076;2024-02-28T12:29:03;96414.59;;;7.76;100.00
15229;BME280;7717;47.792;12.076;2024-02-28T12:31:28;96400.19;;;7.80;100.00
15229;BME280;7717;47.792;12.076;2024-02-28T12:33:54;96410.91;;;7.69;100.00
15229;BME280;7717;47.792;12.076;2024-02-28T12:36:20;96414.41;;;7.59;97.77
15229;BME280;7717;47.792;12.076;2024-02-28T12:38:45;96405.88;;;7.57;99.96
15229;BME280;7717;47.792;12.076;2024-02-28T12:41:11;96414.03;;;7.54;100.00
15229;BME280;7717;47.792;12.076;2024-02-28T12:43:36;96414.16;;;7.53;100.00
15229;BME280;7717;47.792;12.076;2024-02-28T12:46:02;96418.22;;;7.47;100.00
15229;BME280;7717;47.792;12.076;2024-02-28T12:48:27;96417.03;;;7.32;100.00
15229;BME280;7717;47.792;12.076;2024-02-28T12:50:54;96421.31;;;7.33;100.00
15229;BME280;7717;47.792;12.076;2024-02-28T12:53:20;96416.66;;;7.27;100.00